createdAt,value
2022-08-16T00:00:03.231Z,100304.84
2022-08-16T00:02:57.962Z,100301.53
2022-08-16T00:05:28.710Z,100299.94
2022-08-16T00:08:05.687Z,100294.75
2022-08-16T00:10:35.671Z,100299.47
2022-08-16T00:13:07.491Z,100290.59
2022-08-16T00:15:52.132Z,100298.00
2022-08-16T00:18:29.541Z,100294.50
2022-08-16T00:21:01.761Z,100301.03
2022-08-16T00:23:34.497Z,100299.34
2022-08-16T00:26:35.066Z,100290.47
2022-08-16T00:28:59.365Z,100282.44
2022-08-16T00:31:59.352Z,100288.00
2022-08-16T00:34:22.518Z,100294.53
2022-08-16T00:37:17.160Z,100280.25
2022-08-16T00:39:57.147Z,100287.66
2022-08-16T00:42:31.701Z,100291.47
2022-08-16T00:45:08.420Z,100281.78
2022-08-16T00:47:49.483Z,100289.13
2022-08-16T00:50:21.764Z,100290.28
2022-08-16T00:53:09.055Z,100282.25
2022-08-16T00:55:43.782Z,100280.78
2022-08-16T00:58:16.458Z,100289.03
2022-08-16T01:01:08.345Z,100276.59
2022-08-16T01:03:41.397Z,100280.31
2022-08-16T01:06:39.780Z,100285.00
2022-08-16T01:09:06.758Z,100272.56
2022-08-16T01:11:53.865Z,100277.09
2022-08-16T01:14:30.059Z,100280.06
2022-08-16T01:17:01.983Z,100276.59
2022-08-16T01:19:34.927Z,100275.88
2022-08-16T01:22:47.606Z,100278.84
2022-08-16T01:25:06.588Z,100267.28
2022-08-16T01:27:44.317Z,100272.06
2022-08-16T01:30:20.355Z,100258.66
2022-08-16T01:33:15.026Z,100258.88
2022-08-16T01:35:52.649Z,100273.56
2022-08-16T01:38:28.308Z,100269.13
2022-08-16T01:41:02.996Z,100270.97
2022-08-16T01:43:35.248Z,100271.97
2022-08-16T01:46:37.766Z,100268.50
2022-08-16T01:49:00.102Z,100256.22
2022-08-16T01:51:31.558Z,100260.03
2022-08-16T01:54:02.349Z,100257.53
2022-08-16T01:56:40.941Z,100254.09
2022-08-16T01:59:15.696Z,100246.25
2022-08-16T02:01:52.526Z,100249.19
2022-08-16T02:04:49.190Z,100253.00
2022-08-16T02:07:23.762Z,100253.22
2022-08-16T02:09:57.148Z,100260.59
2022-08-16T02:12:50.426Z,100264.41
2022-08-16T02:15:25.193Z,100260.97
2022-08-16T02:17:56.614Z,100264.78
2022-08-16T02:20:27.794Z,100255.91
2022-08-16T02:22:58.263Z,100256.88
2022-08-16T02:25:52.708Z,100266.97
2022-08-16T02:28:20.241Z,100255.41
2022-08-16T02:30:54.175Z,100245.81
2022-08-16T02:33:44.642Z,100251.22
2022-08-16T02:36:42.450Z,100245.06
2022-08-16T02:39:22.975Z,100238.94
2022-08-16T02:41:53.863Z,100243.59
2022-08-16T02:44:27.025Z,100246.31
2022-08-16T02:46:58.057Z,100237.44
2022-08-16T02:49:58.348Z,100234.88
2022-08-16T02:52:24.682Z,100238.53
2022-08-16T02:54:57.486Z,100240.38
2022-08-16T02:57:27.596Z,100226.84
2022-08-16T03:00:00.142Z,100239.53
2022-08-16T03:02:33.247Z,100232.53
2022-08-16T03:05:11.448Z,100236.19
2022-08-16T03:07:44.034Z,100234.50
2022-08-16T03:14:07.297Z,100233.00
2022-08-16T03:16:58.628Z,100242.97
2022-08-16T03:19:47.322Z,100234.97
2022-08-16T03:22:28.287Z,100238.66
2022-08-16T03:25:07.462Z,100236.94
2022-08-16T03:27:41.158Z,100232.63
2022-08-16T03:30:19.898Z,100238.91
2022-08-16T03:32:56.638Z,100240.88
2022-08-16T03:35:32.841Z,100247.25
2022-08-16T03:38:32.559Z,100259.03
2022-08-16T03:41:17.136Z,100252.03
2022-08-16T03:43:55.767Z,100255.59
2022-08-16T03:46:48.403Z,100258.28
2022-08-16T03:49:20.272Z,100267.28
2022-08-16T03:51:53.519Z,100270.84
2022-08-16T03:54:30.896Z,100265.44
2022-08-16T03:57:00.444Z,100270.84
2022-08-16T03:59:31.519Z,100273.56
2022-08-16T04:02:12.226Z,100271.72
2022-08-16T04:04:55.290Z,100274.44
2022-08-16T04:07:26.816Z,100274.28
2022-08-16T04:10:36.397Z,100264.22
2022-08-16T04:12:59.476Z,100268.66
2022-08-16T04:15:34.874Z,100272.09
2022-08-16T04:18:15.677Z,100287.22
2022-08-16T04:20:46.256Z,100279.75
2022-08-16T04:23:17.287Z,100285.75
2022-08-16T04:25:47.846Z,100281.84
2022-08-16T04:28:52.358Z,100281.59
2022-08-16T04:31:10.765Z,100296.75
2022-08-16T04:33:51.015Z,100296.50
2022-08-16T04:36:26.194Z,100296.13
2022-08-16T04:38:56.227Z,100288.63
2022-08-16T04:41:32.592Z,100283.72
2022-08-16T04:44:31.094Z,100301.31
2022-08-16T04:47:00.674Z,100307.25
2022-08-16T04:49:43.598Z,100303.19
2022-08-16T04:52:34.647Z,100300.13
2022-08-16T04:55:09.757Z,100301.50
2022-08-16T04:57:42.845Z,100304.47
2022-08-16T05:00:30.962Z,100307.63
2022-08-16T05:03:21.980Z,100302.50
2022-08-16T05:05:59.778Z,100301.84
2022-08-16T05:08:38.210Z,100309.38
2022-08-16T05:11:25.164Z,100304.19
2022-08-16T05:14:06.918Z,100309.97
2022-08-16T05:16:38.929Z,100314.75
2022-08-16T05:19:13.316Z,100315.97
2022-08-16T05:22:05.749Z,100314.25
2022-08-16T05:24:40.369Z,100317.09
2022-08-16T05:27:13.438Z,100317.16
2022-08-16T05:29:59.244Z,100322.81
2022-08-16T05:32:32.257Z,100322.03
2022-08-16T05:35:07.783Z,100322.97
2022-08-16T05:37:44.844Z,100318.47
2022-08-16T05:40:18.627Z,100312.28
2022-08-16T05:42:49.340Z,100319.63
2022-08-16T05:45:22.160Z,100314.25
2022-08-16T05:48:00.127Z,100315.09
2022-08-16T05:50:53.017Z,100314.91
2022-08-16T05:53:24.246Z,100319.38
2022-08-16T05:56:19.458Z,100316.59
2022-08-16T05:58:50.256Z,100309.34
2022-08-16T06:01:20.489Z,100311.09
2022-08-16T06:03:53.469Z,100306.56
2022-08-16T06:06:34.602Z,100313.78
2022-08-16T06:09:06.366Z,100309.09
2022-08-16T06:11:39.853Z,100302.69
2022-08-16T06:14:13.225Z,100317.16
2022-08-16T06:16:50.560Z,100312.59
2022-08-16T06:19:21.455Z,100306.31
2022-08-16T06:22:02.295Z,100305.47
2022-08-16T06:24:52.569Z,100317.22
2022-08-16T06:27:24.667Z,100309.94
2022-08-16T06:29:54.370Z,100308.22
2022-08-16T06:32:27.158Z,100310.78
2022-08-16T06:35:02.798Z,100308.91
2022-08-16T06:37:37.442Z,100322.53
2022-08-16T06:40:13.089Z,100311.50
2022-08-16T06:42:57.185Z,100321.19
2022-08-16T06:45:38.083Z,100317.59
2022-08-16T06:48:18.907Z,100315.72
2022-08-16T06:50:52.078Z,100317.56
2022-08-16T06:53:22.888Z,100324.69
2022-08-16T06:56:14.512Z,100329.22
2022-08-16T06:59:10.877Z,100325.44
2022-08-16T07:01:50.790Z,100328.31
2022-08-16T07:04:33.359Z,100322.78
2022-08-16T07:07:17.021Z,100327.22
2022-08-16T07:09:46.130Z,100334.50
2022-08-16T07:12:15.518Z,100342.75
2022-08-16T07:14:49.104Z,100340.81
2022-08-16T07:17:21.747Z,100351.69
2022-08-16T07:20:29.877Z,100349.91
2022-08-16T07:22:58.695Z,100339.75
2022-08-16T07:25:46.282Z,100344.13
2022-08-16T07:28:20.744Z,100337.94
2022-08-16T07:30:57.578Z,100339.69
2022-08-16T07:33:53.323Z,100338.75
2022-08-16T07:36:31.764Z,100337.81
2022-08-16T07:39:01.838Z,100339.75
2022-08-16T07:41:36.874Z,100343.38
2022-08-16T07:44:16.187Z,100340.72
2022-08-16T07:46:55.445Z,100343.53
2022-08-16T07:49:27.128Z,100349.06
2022-08-16T07:52:18.690Z,100341.91
2022-08-16T07:54:53.118Z,100348.47
2022-08-16T07:57:24.238Z,100350.22
2022-08-16T07:59:57.113Z,100351.13
2022-08-16T08:02:28.512Z,100355.78
2022-08-16T08:05:00.642Z,100361.28
2022-08-16T08:07:34.046Z,100364.09
2022-08-16T08:10:11.319Z,100363.41
2022-08-16T08:12:42.082Z,100365.34
2022-08-16T08:15:15.423Z,100364.53
2022-08-16T08:17:56.652Z,100368.31
2022-08-16T08:20:47.096Z,100373.84
2022-08-16T08:23:30.507Z,100369.38
2022-08-16T08:26:00.688Z,100367.69
2022-08-16T08:28:32.266Z,100372.50
2022-08-16T08:31:05.857Z,100373.56
2022-08-16T08:33:43.778Z,100374.56
2022-08-16T08:36:24.994Z,100372.91
2022-08-16T08:39:12.869Z,100365.75
2022-08-16T08:41:43.607Z,100364.00
2022-08-16T08:44:28.323Z,100361.28
2022-08-16T08:47:04.749Z,100363.16
2022-08-16T08:49:46.529Z,100358.03
2022-08-16T08:52:47.877Z,100367.13
2022-08-16T08:55:13.593Z,100367.28
2022-08-16T08:57:47.646Z,100374.63
2022-08-16T09:00:51.222Z,100359.38
2022-08-16T09:03:22.526Z,100360.41
2022-08-16T09:05:54.282Z,100363.31
2022-08-16T09:08:26.545Z,100358.00
2022-08-16T09:11:07.479Z,100364.50
2022-08-16T09:13:38.660Z,100355.38
2022-08-16T09:17:01.109Z,100349.84
2022-08-16T09:21:40.711Z,100349.13
2022-08-16T09:24:11.704Z,100349.31
2022-08-16T09:27:00.924Z,100357.50
2022-08-16T09:29:44.366Z,100357.66
2022-08-16T09:32:28.912Z,100346.81
2022-08-16T09:35:01.616Z,100348.66
2022-08-16T09:37:36.717Z,100343.28
2022-08-16T09:40:31.863Z,100348.91
2022-08-16T09:42:59.742Z,100361.75
2022-08-16T09:45:30.223Z,100355.50
2022-08-16T09:48:00.500Z,100351.03
2022-08-16T09:50:37.076Z,100351.16
2022-08-16T09:53:14.724Z,100345.59
2022-08-16T09:55:48.978Z,100346.59
2022-08-16T09:58:40.755Z,100345.84
2022-08-16T10:01:11.286Z,100345.97
2022-08-16T10:04:01.896Z,100336.97
2022-08-16T10:06:33.882Z,100336.06
2022-08-16T10:09:08.393Z,100340.81
2022-08-16T10:12:11.435Z,100342.84
2022-08-16T10:14:47.234Z,100343.84
2022-08-16T10:17:17.228Z,100347.53
2022-08-16T10:19:47.353Z,100341.47
2022-08-16T10:22:22.919Z,100336.25
2022-08-16T10:24:56.089Z,100338.44
2022-08-16T10:27:45.744Z,100338.34
2022-08-16T10:30:25.603Z,100336.94
2022-08-16T10:32:58.423Z,100342.72
2022-08-16T10:35:32.957Z,100344.72
2022-08-16T10:38:02.697Z,100342.09
2022-08-16T10:40:37.653Z,100339.41
2022-08-16T10:43:08.368Z,100343.97
2022-08-16T10:45:57.263Z,100334.75
2022-08-16T10:48:31.210Z,100339.31
2022-08-16T10:51:00.753Z,100337.03
2022-08-16T10:53:34.065Z,100334.94
2022-08-16T10:56:56.002Z,100332.47
2022-08-16T10:59:29.645Z,100338.22
2022-08-16T11:10:57.156Z,100329.00
2022-08-16T11:16:25.686Z,100329.06
2022-08-16T11:19:04.598Z,100331.25
2022-08-16T11:21:37.668Z,100338.94
2022-08-16T11:24:39.632Z,100335.38
2022-08-16T11:27:23.323Z,100329.75
2022-08-16T11:29:57.013Z,100335.13
2022-08-16T11:32:31.621Z,100344.81
2022-08-16T11:35:13.824Z,100341.50
2022-08-16T11:38:46.948Z,100339.25
2022-08-16T11:40:52.207Z,100334.28
2022-08-16T11:43:26.585Z,100336.47
2022-08-16T11:46:01.472Z,100328.88
2022-08-16T11:48:50.890Z,100327.50
2022-08-16T11:51:20.666Z,100334.56
2022-08-16T11:53:49.620Z,100339.94
2022-08-16T11:56:37.588Z,100333.59
2022-08-16T11:59:12.788Z,100328.31
2022-08-16T12:01:44.506Z,100329.41
2022-08-16T12:04:28.671Z,100327.09
2022-08-16T12:06:59.334Z,100323.06
2022-08-16T12:09:29.676Z,100329.25
2022-08-16T12:12:02.696Z,100322.88
2022-08-16T12:14:35.223Z,100326.28
2022-08-16T12:17:08.454Z,100334.56
2022-08-16T12:19:38.296Z,100321.59
2022-08-16T12:22:18.834Z,100322.06
2022-08-16T12:24:51.870Z,100317.19
2022-08-16T12:27:24.049Z,100319.56
2022-08-16T12:29:53.786Z,100312.34
2022-08-16T12:32:38.166Z,100323.63
2022-08-16T12:35:13.335Z,100321.53
2022-08-16T12:37:46.171Z,100318.13
2022-08-16T12:40:24.536Z,100316.84
2022-08-16T12:42:58.965Z,100310.69
2022-08-16T12:45:30.894Z,100311.97
2022-08-16T12:48:33.855Z,100319.44
2022-08-16T12:51:05.065Z,100310.75
2022-08-16T12:53:43.622Z,100309.69
2022-08-16T12:56:13.866Z,100302.03
2022-08-16T12:58:49.421Z,100289.69
2022-08-16T13:01:22.409Z,100299.47
2022-08-16T13:04:11.633Z,100284.38
2022-08-16T13:06:45.689Z,100284.19
2022-08-16T13:09:20.276Z,100274.41
2022-08-16T13:12:00.283Z,100278.06
2022-08-16T13:14:34.233Z,100266.16
2022-08-16T13:17:06.728Z,100282.53
2022-08-16T13:20:06.525Z,100278.31
2022-08-16T13:22:27.956Z,100276.59
2022-08-16T13:24:57.135Z,100273.19
2022-08-16T13:27:34.914Z,100269.34
2022-08-16T13:30:36.393Z,100262.13
2022-08-16T13:33:11.499Z,100253.81
2022-08-16T13:35:56.098Z,100239.97
2022-08-16T13:38:37.131Z,100237.00
2022-08-16T13:41:08.890Z,100227.84
2022-08-16T13:43:38.985Z,100225.06
2022-08-16T13:46:09.001Z,100227.84
2022-08-16T13:48:43.933Z,100231.03
2022-08-16T13:51:18.411Z,100232.34
2022-08-16T13:53:54.406Z,100230.13
2022-08-16T13:56:37.122Z,100225.97
2022-08-16T13:59:19.341Z,100235.06
2022-08-16T14:01:55.045Z,100234.03
2022-08-16T14:04:27.721Z,100234.31
2022-08-16T14:06:59.982Z,100238.81
2022-08-16T14:09:30.150Z,100241.44
2022-08-16T14:12:00.843Z,100239.72
2022-08-16T14:14:31.542Z,100244.44
2022-08-16T14:17:02.959Z,100253.38
2022-08-16T14:19:32.132Z,100254.97
2022-08-16T14:22:13.682Z,100252.03
2022-08-16T14:24:46.978Z,100245.41
2022-08-16T14:27:17.991Z,100249.72
2022-08-16T14:29:49.413Z,100258.59
2022-08-16T14:32:32.715Z,100265.41
2022-08-16T14:35:04.290Z,100274.59
2022-08-16T14:37:35.878Z,100277.66
2022-08-16T14:40:06.063Z,100277.63
2022-08-16T14:42:36.771Z,100289.63
2022-08-16T14:45:07.605Z,100291.25
2022-08-16T14:47:38.557Z,100293.66
2022-08-16T14:50:09.931Z,100302.50
2022-08-16T14:52:55.145Z,100303.53
2022-08-16T14:55:26.478Z,100315.94
2022-08-16T14:57:56.320Z,100327.78
2022-08-16T15:00:32.853Z,100328.34
2022-08-16T15:03:09.693Z,100338.03
2022-08-16T15:05:40.927Z,100360.06
2022-08-16T15:08:11.642Z,100388.19
2022-08-16T15:10:42.796Z,100395.56
2022-08-16T15:13:16.345Z,100405.97
2022-08-16T15:15:56.318Z,100393.84
2022-08-16T15:18:31.735Z,100394.41
2022-08-16T15:21:02.458Z,100396.81
2022-08-16T15:23:33.585Z,100412.09
2022-08-16T15:26:08.493Z,100426.50
2022-08-16T15:28:38.328Z,100440.84
2022-08-16T15:31:09.721Z,100446.34
2022-08-16T15:33:42.685Z,100465.34
2022-08-16T15:36:18.299Z,100449.41
2022-08-16T15:39:01.969Z,100440.28
2022-08-16T15:41:58.224Z,100437.66
2022-08-16T15:44:37.704Z,100443.28
2022-08-16T15:47:16.448Z,100437.31
2022-08-16T15:49:54.668Z,100449.25
2022-08-16T15:52:29.953Z,100455.16
2022-08-16T15:55:07.354Z,100461.84
2022-08-16T15:57:42.622Z,100468.94
2022-08-16T16:00:14.612Z,100461.91
2022-08-16T16:02:45.268Z,100456.59
2022-08-16T16:05:15.220Z,100447.66
2022-08-16T16:07:56.531Z,100442.16
2022-08-16T16:10:38.086Z,100435.81
2022-08-16T16:13:09.546Z,100417.41
2022-08-16T16:15:41.230Z,100405.38
2022-08-16T16:18:12.091Z,100407.03
2022-08-16T16:20:43.878Z,100416.75
2022-08-16T16:23:14.062Z,100412.91
2022-08-16T16:25:47.052Z,100411.63
2022-08-16T16:29:05.821Z,100407.09
2022-08-16T16:31:15.719Z,100397.16
2022-08-16T16:33:47.887Z,100400.88
2022-08-16T16:36:25.573Z,100398.41
2022-08-16T16:38:58.520Z,100397.81
2022-08-16T16:41:32.521Z,100390.69
2022-08-16T16:44:02.869Z,100390.63
2022-08-16T16:46:42.487Z,100388.69
2022-08-16T16:49:14.708Z,100392.38
2022-08-16T16:51:49.699Z,100395.91
2022-08-16T16:54:27.949Z,100409.50
2022-08-16T16:57:01.193Z,100425.78
2022-08-16T16:59:29.522Z,100430.88
2022-08-16T17:02:46.104Z,100431.19
2022-08-16T17:04:50.093Z,100448.72
2022-08-16T17:07:20.613Z,100436.09
2022-08-16T17:09:53.694Z,100428.78
2022-08-16T17:12:47.177Z,100434.25
2022-08-16T17:15:14.935Z,100440.69
2022-08-16T17:17:59.738Z,100431.81
2022-08-16T17:20:31.452Z,100435.53
2022-08-16T17:23:01.176Z,100424.59
2022-08-16T17:25:36.418Z,100433.84
2022-08-16T17:28:57.610Z,100428.38
2022-08-16T17:30:58.579Z,100430.41
2022-08-16T17:33:28.689Z,100434.09
2022-08-16T17:36:08.667Z,100449.66
2022-08-16T17:38:44.689Z,100449.78
2022-08-16T17:41:16.326Z,100450.09
2022-08-16T17:43:47.026Z,100463.75
2022-08-16T17:46:51.211Z,100456.56
2022-08-16T17:49:06.357Z,100459.63
2022-08-16T17:51:35.563Z,100464.38
2022-08-16T17:54:04.696Z,100461.78
2022-08-16T17:56:34.292Z,100459.22
2022-08-16T17:59:05.105Z,100467.69
2022-08-16T18:01:34.313Z,100472.44
2022-08-16T18:04:09.083Z,100479.94
2022-08-16T18:06:39.791Z,100477.38
2022-08-16T18:09:10.347Z,100482.97
2022-08-16T18:11:41.086Z,100480.53
2022-08-16T18:14:13.256Z,100478.84
2022-08-16T18:16:43.004Z,100470.22
2022-08-16T18:19:12.210Z,100476.31
2022-08-16T18:21:59.701Z,100467.69
2022-08-16T18:24:29.235Z,100464.25
2022-08-16T18:27:25.315Z,100463.72
2022-08-16T18:29:51.215Z,100467.03
2022-08-16T18:32:24.445Z,100465.75
2022-08-16T18:34:55.069Z,100466.34
2022-08-16T18:37:25.017Z,100465.94
2022-08-16T18:39:54.019Z,100464.63
2022-08-16T18:42:27.276Z,100472.44
2022-08-16T18:44:57.664Z,100470.13
2022-08-16T18:47:26.871Z,100456.94
2022-08-16T18:49:55.886Z,100465.56
2022-08-16T18:52:26.013Z,100463.13
2022-08-16T18:54:58.894Z,100460.97
2022-08-16T18:57:43.215Z,100457.84
2022-08-16T19:00:16.575Z,100449.97
2022-08-16T19:02:58.174Z,100447.50
2022-08-16T19:05:31.288Z,100461.72
2022-08-16T19:08:01.743Z,100460.47
2022-08-16T19:10:31.836Z,100467.22
2022-08-16T19:13:05.722Z,100461.75
2022-08-16T19:15:37.550Z,100460.19
2022-08-16T19:18:07.007Z,100470.50
2022-08-16T19:20:36.798Z,100470.94
2022-08-16T19:23:09.947Z,100473.91
2022-08-16T19:25:46.631Z,100476.78
2022-08-16T19:28:49.131Z,100476.22
2022-08-16T19:31:17.483Z,100470.91
2022-08-16T19:33:54.466Z,100476.34
2022-08-16T19:36:31.662Z,100490.13
2022-08-16T19:39:06.000Z,100487.66
2022-08-16T19:41:37.179Z,100497.84
2022-08-16T19:44:08.980Z,100488.25
2022-08-16T19:46:41.782Z,100496.56
2022-08-16T19:49:15.959Z,100498.72
2022-08-16T19:51:46.223Z,100491.69
2022-08-16T19:54:15.149Z,100491.97
2022-08-16T19:56:44.131Z,100502.28
2022-08-16T19:59:19.739Z,100501.84
2022-08-16T20:01:52.551Z,100492.25
2022-08-16T20:04:23.085Z,100500.81
2022-08-16T20:06:53.227Z,100502.25
2022-08-16T20:09:23.355Z,100505.41
2022-08-16T20:11:54.250Z,100504.22
2022-08-16T20:14:26.454Z,100498.47
2022-08-16T20:16:59.967Z,100500.75
2022-08-16T20:19:32.603Z,100511.16
2022-08-16T20:22:09.426Z,100512.44
2022-08-16T20:24:38.865Z,100505.28
2022-08-16T20:27:10.031Z,100507.28
2022-08-16T20:29:41.217Z,100511.25
2022-08-16T20:32:15.716Z,100502.38
2022-08-16T20:34:46.414Z,100508.84
2022-08-16T20:37:16.748Z,100512.53
2022-08-16T20:39:47.462Z,100509.81
2022-08-16T20:42:19.512Z,100523.56
2022-08-16T20:44:48.760Z,100519.25
2022-08-16T20:47:19.845Z,100521.25
2022-08-16T20:49:50.147Z,100532.28
2022-08-16T20:52:22.166Z,100536.13
2022-08-16T20:54:51.787Z,100549.88
2022-08-16T20:57:21.512Z,100538.25
2022-08-16T20:59:50.524Z,100545.69
2022-08-16T21:02:27.678Z,100544.25
2022-08-16T21:04:57.179Z,100542.66
2022-08-16T21:07:28.704Z,100539.47
2022-08-16T21:09:57.946Z,100539.75
2022-08-16T21:12:27.725Z,100538.00
2022-08-16T21:15:07.326Z,100535.53
2022-08-16T21:17:37.616Z,100545.44
2022-08-16T21:20:11.504Z,100543.72
2022-08-16T21:22:41.288Z,100549.16
2022-08-16T21:25:13.170Z,100549.28
2022-08-16T21:28:39.085Z,100541.41
2022-08-16T21:30:33.306Z,100549.81
2022-08-16T21:33:09.163Z,100552.81
2022-08-16T21:35:39.319Z,100547.50
2022-08-16T21:38:29.083Z,100562.22
2022-08-16T21:40:59.192Z,100559.78
2022-08-16T21:43:32.088Z,100557.31
2022-08-16T21:46:02.170Z,100560.19
2022-08-16T21:48:35.985Z,100558.72
2022-08-16T21:51:07.475Z,100556.34
2022-08-16T21:53:37.894Z,100558.50
2022-08-16T21:56:09.854Z,100554.28
2022-08-16T21:58:46.619Z,100545.28
2022-08-16T22:01:23.873Z,100549.13
2022-08-16T22:04:01.711Z,100546.66
2022-08-16T22:06:44.697Z,100562.22
2022-08-16T22:09:16.400Z,100562.50
2022-08-16T22:11:46.086Z,100548.19
2022-08-16T22:14:15.397Z,100547.47
2022-08-16T22:16:44.339Z,100556.72
2022-08-16T22:19:14.501Z,100545.25
2022-08-16T22:21:43.674Z,100548.97
2022-08-16T22:24:12.472Z,100547.50
2022-08-16T22:26:43.539Z,100546.78
2022-08-16T22:29:15.322Z,100555.91
2022-08-16T22:31:45.195Z,100559.88
2022-08-16T22:34:15.987Z,100555.69
2022-08-16T22:36:45.182Z,100555.09
2022-08-16T22:39:14.941Z,100556.22
2022-08-16T22:41:45.681Z,100552.91
2022-08-16T22:44:15.566Z,100543.25
2022-08-16T22:46:44.919Z,100545.25
2022-08-16T22:49:15.574Z,100540.94
2022-08-16T22:51:44.523Z,100534.66
2022-08-16T22:54:48.010Z,100539.22
2022-08-16T22:57:03.229Z,100533.19
2022-08-16T22:59:32.361Z,100532.56
2022-08-16T23:02:03.372Z,100528.13
2022-08-16T23:04:34.096Z,100517.66
2022-08-16T23:07:03.677Z,100525.16
2022-08-16T23:09:33.845Z,100520.84
2022-08-16T23:12:07.306Z,100520.13
2022-08-16T23:14:36.654Z,100523.94
2022-08-16T23:17:05.793Z,100522.47
2022-08-16T23:19:35.984Z,100522.84
2022-08-16T23:22:06.032Z,100518.53
2022-08-16T23:24:37.096Z,100517.94
2022-08-16T23:27:15.142Z,100513.63
2022-08-16T23:29:44.297Z,100516.56
2022-08-16T23:32:14.403Z,100516.84
2022-08-16T23:34:45.306Z,100510.91
2022-08-16T23:37:14.405Z,100515.88
2022-08-16T23:39:44.085Z,100511.69
2022-08-16T23:42:15.464Z,100504.66
2022-08-16T23:45:05.365Z,100509.34
2022-08-16T23:47:34.777Z,100495.88
2022-08-16T23:50:06.012Z,100494.16
2022-08-16T23:52:53.299Z,100497.00
2022-08-16T23:55:23.384Z,100505.25
2022-08-16T23:57:52.851Z,100505.53
